sensor_id;sensor_type;location;lat;lon;timestamp;temperature;humidity
11242;DHT22;5678;52.370;9.006;2023-08-12T04:08:12;18.50;99.90
11242;DHT22;5678;52.370;9.006;2023-08-12T04:10:43;18.90;99.90
11242;DHT22;5678;52.370;9.006;2023-08-12T04:13:11;19.10;99.90
11242;DHT22;5678;52.370;9.006;2023-08-12T04:15:39;18.50;99.90
11242;DHT22;5678;52.370;9.006;2023-08-12T04:18:07;18.80;99.90
11242;DHT22;5678;52.370;9.006;2023-08-12T04:20:37;18.70;99.90
11242;DHT22;5678;52.370;9.006;2023-08-12T04:23:05;18.70;99.90
11242;DHT22;5678;52.370;9.006;2023-08-12T04:25:34;18.60;99.90
11242;DHT22;5678;52.370;9.006;2023-08-12T04:28:03;19.20;99.90
11242;DHT22;5678;52.370;9.006;2023-08-12T04:30:31;18.50;99.90
11242;DHT22;5678;52.370;9.006;2023-08-12T04:32:59;19.00;99.90
11242;DHT22;5678;52.370;9.006;2023-08-12T04:35:27;18.90;99.90
11242;DHT22;5678;52.370;9.006;2023-08-12T04:37:55;18.70;99.90
11242;DHT22;5678;52.370;9.006;2023-08-12T04:40:26;18.90;99.90
11242;DHT22;5678;52.370;9.006;2023-08-12T04:42:56;18.80;99.90
11242;DHT22;5678;52.370;9.006;2023-08-12T04:45:24;18.70;99.90
11242;DHT22;5678;52.370;9.006;2023-08-12T04:47:52;18.70;99.90
11242;DHT22;5678;52.370;9.006;2023-08-12T04:50:20;18.80;99.90
11242;DHT22;5678;52.370;9.006;2023-08-12T04:52:48;18.60;99.90
11242;DHT22;5678;52.370;9.006;2023-08-12T04:55:16;18.90;99.90
11242;DHT22;5678;52.370;9.006;2023-08-12T04:57:45;18.60;99.90
11242;DHT22;5678;52.370;9.006;2023-08-12T05:00:14;18.60;99.90
11242;DHT22;5678;52.370;9.006;2023-08-12T05:02:42;18.80;99.90
11242;DHT22;5678;52.370;9.006;2023-08-12T05:05:10;18.90;99.90
11242;DHT22;5678;52.370;9.006;2023-08-12T05:07:38;19.00;99.90
11242;DHT22;5678;52.370;9.006;2023-08-12T05:10:07;19.20;99.90
11242;DHT22;5678;52.370;9.006;2023-08-12T05:12:35;18.70;99.90
11242;DHT22;5678;52.370;9.006;2023-08-12T05:15:04;19.30;99.90
11242;DHT22;5678;52.370;9.006;2023-08-12T05:17:33;18.80;99.90
11242;DHT22;5678;52.370;9.006;2023-08-12T05:20:01;18.80;99.90
11242;DHT22;5678;52.370;9.006;2023-08-12T05:22:30;19.30;99.90
11242;DHT22;5678;52.370;9.006;2023-08-12T05:24:58;19.40;99.90
11242;DHT22;5678;52.370;9.006;2023-08-12T05:27:26;18.90;99.90
11242;DHT22;5678;52.370;9.006;2023-08-12T05:29:54;19.20;99.90
11242;DHT22;5678;52.370;9.006;2023-08-12T05:32:22;19.10;99.90
11242;DHT22;5678;52.370;9.006;2023-08-12T05:34:52;19.20;99.90
11242;DHT22;5678;52.370;9.006;2023-08-12T05:37:20;18.90;99.90
11242;DHT22;5678;52.370;9.006;2023-08-12T05:39:48;19.50;99.90
11242;DHT22;5678;52.370;9.006;2023-08-12T05:42:16;19.10;99.90
11242;DHT22;5678;52.370;9.006;2023-08-12T05:44:44;19.10;99.90
11242;DHT22;5678;52.370;9.006;2023-08-12T05:47:12;19.00;99.90
11242;DHT22;5678;52.370;9.006;2023-08-12T05:49:40;19.10;99.90
11242;DHT22;5678;52.370;9.006;2023-08-12T05:52:10;19.10;99.90
11242;DHT22;5678;52.370;9.006;2023-08-12T05:54:38;19.20;99.90
11242;DHT22;5678;52.370;9.006;2023-08-12T05:57:06;19.10;99.90
11242;DHT22;5678;52.370;9.006;2023-08-12T05:59:34;19.70;99.90
11242;DHT22;5678;52.370;9.006;2023-08-12T06:02:02;19.40;99.90
11242;DHT22;5678;52.370;9.006;2023-08-12T06:04:30;19.10;99.90
11242;DHT22;5678;52.370;9.006;2023-08-12T06:06:58;19.10;99.90
11242;DHT22;5678;52.370;9.006;2023-08-12T06:09:27;18.90;99.90
11242;DHT22;5678;52.370;9.006;2023-08-12T06:11:55;18.90;99.90
11242;DHT22;5678;52.370;9.006;2023-08-12T06:14:23;19.30;99.90
11242;DHT22;5678;52.370;9.006;2023-08-12T06:16:51;19.00;99.90
11242;DHT22;5678;52.370;9.006;2023-08-12T06:19:18;19.80;99.90
11242;DHT22;5678;52.370;9.006;2023-08-12T06:21:46;19.40;99.90
11242;DHT22;5678;52.370;9.006;2023-08-12T06:24:14;19.10;99.90
11242;DHT22;5678;52.370;9.006;2023-08-12T06:26:43;19.40;99.90
11242;DHT22;5678;52.370;9.006;2023-08-12T06:29:12;19.40;99.90
11242;DHT22;5678;52.370;9.006;2023-08-12T06:31:40;19.30;99.90
11242;DHT22;5678;52.370;9.006;2023-08-12T06:34:08;19.30;99.90
11242;DHT22;5678;52.370;9.006;2023-08-12T06:36:36;19.80;99.90
11242;DHT22;5678;52.370;9.006;2023-08-12T06:39:04;20.00;99.90
11242;DHT22;5678;52.370;9.006;2023-08-12T06:41:32;19.60;99.90
11242;DHT22;5678;52.370;9.006;2023-08-12T06:44:01;19.80;99.90
11242;DHT22;5678;52.370;9.006;2023-08-12T06:46:30;19.90;99.90
11242;DHT22;5678;52.370;9.006;2023-08-12T06:48:58;20.10;99.90
11242;DHT22;5678;52.370;9.006;2023-08-12T06:51:27;20.30;99.90
11242;DHT22;5678;52.370;9.006;2023-08-12T06:53:55;20.00;99.90
11242;DHT22;5678;52.370;9.006;2023-08-12T06:56:22;20.40;99.90
11242;DHT22;5678;52.370;9.006;2023-08-12T06:58:50;20.90;99.90
11242;DHT22;5678;52.370;9.006;2023-08-12T07:01:20;20.90;99.90
11242;DHT22;5678;52.370;9.006;2023-08-12T07:03:48;20.70;99.90
11242;DHT22;5678;52.370;9.006;2023-08-12T07:06:16;20.90;99.90
11242;DHT22;5678;52.370;9.006;2023-08-12T07:08:44;21.10;99.90
11242;DHT22;5678;52.370;9.006;2023-08-12T07:11:12;21.60;99.90
11242;DHT22;5678;52.370;9.006;2023-08-12T07:13:40;21.50;99.90
11242;DHT22;5678;52.370;9.006;2023-08-12T07:16:09;21.60;99.90
11242;DHT22;5678;52.370;9.006;2023-08-12T07:18:38;22.00;99.90
11242;DHT22;5678;52.370;9.006;2023-08-12T07:21:06;21.80;99.90
11242;DHT22;5678;52.370;9.006;2023-08-12T07:23:34;21.90;99.90
11242;DHT22;5678;52.370;9.006;2023-08-12T07:26:02;22.20;99.90
11242;DHT22;5678;52.370;9.006;2023-08-12T07:28:30;22.00;99.90
11242;DHT22;5678;52.370;9.006;2023-08-12T07:31:00;22.10;99.90
11242;DHT22;5678;52.370;9.006;2023-08-12T07:33:28;22.10;99.90
11242;DHT22;5678;52.370;9.006;2023-08-12T07:35:58;22.10;99.90
11242;DHT22;5678;52.370;9.006;2023-08-12T07:38:26;22.00;99.90
11242;DHT22;5678;52.370;9.006;2023-08-12T07:40:54;22.00;99.90
11242;DHT22;5678;52.370;9.006;2023-08-12T07:43:22;22.40;99.90
11242;DHT22;5678;52.370;9.006;2023-08-12T07:45:51;22.20;99.90
11242;DHT22;5678;52.370;9.006;2023-08-12T07:48:35;22.10;99.90
11242;DHT22;5678;52.370;9.006;2023-08-12T07:51:06;21.90;99.90
11242;DHT22;5678;52.370;9.006;2023-08-12T07:53:34;21.80;99.90
11242;DHT22;5678;52.370;9.006;2023-08-12T07:56:02;21.90;99.90
11242;DHT22;5678;52.370;9.006;2023-08-12T07:58:30;22.00;99.90
11242;DHT22;5678;52.370;9.006;2023-08-12T08:00:58;22.10;99.90
11242;DHT22;5678;52.370;9.006;2023-08-12T08:03:26;22.40;99.90
11242;DHT22;5678;52.370;9.006;2023-08-12T08:05:55;22.70;99.90
11242;DHT22;5678;52.370;9.006;2023-08-12T08:08:24;22.50;99.90
11242;DHT22;5678;52.370;9.006;2023-08-12T08:10:52;22.30;99.90
11242;DHT22;5678;52.370;9.006;2023-08-12T08:13:20;22.60;99.90
11242;DHT22;5678;52.370;9.006;2023-08-12T08:15:48;22.30;99.90
11242;DHT22;5678;52.370;9.006;2023-08-12T08:18:16;22.30;99.90
11242;DHT22;5678;52.370;9.006;2023-08-12T08:20:44;22.40;99.90
11242;DHT22;5678;52.370;9.006;2023-08-12T08:23:12;22.40;99.90
11242;DHT22;5678;52.370;9.006;2023-08-12T08:25:42;22.10;99.90
11242;DHT22;5678;52.370;9.006;2023-08-12T08:28:09;21.90;99.90
11242;DHT22;5678;52.370;9.006;2023-08-12T08:30:37;22.20;99.90
11242;DHT22;5678;52.370;9.006;2023-08-12T08:33:06;21.90;99.90
11242;DHT22;5678;52.370;9.006;2023-08-12T08:35:34;22.30;99.90
11242;DHT22;5678;52.370;9.006;2023-08-12T08:38:02;22.10;99.90
11242;DHT22;5678;52.370;9.006;2023-08-12T08:40:31;21.80;99.90
11242;DHT22;5678;52.370;9.006;2023-08-12T08:43:02;22.00;99.90
11242;DHT22;5678;52.370;9.006;2023-08-12T08:45:32;21.70;99.90
11242;DHT22;5678;52.370;9.006;2023-08-12T08:48:02;21.70;99.90
11242;DHT22;5678;52.370;9.006;2023-08-12T08:50:31;21.80;99.90
11242;DHT22;5678;52.370;9.006;2023-08-12T08:53:00;22.10;99.90
11242;DHT22;5678;52.370;9.006;2023-08-12T08:55:29;21.90;99.90
11242;DHT22;5678;52.370;9.006;2023-08-12T08:57:57;22.00;99.90
11242;DHT22;5678;52.370;9.006;2023-08-12T09:00:32;22.20;99.90
11242;DHT22;5678;52.370;9.006;2023-08-12T09:03:01;22.20;99.90
11242;DHT22;5678;52.370;9.006;2023-08-12T09:05:31;21.90;99.90
11242;DHT22;5678;52.370;9.006;2023-08-12T09:08:02;22.20;99.90
11242;DHT22;5678;52.370;9.006;2023-08-12T09:10:30;22.10;99.90
11242;DHT22;5678;52.370;9.006;2023-08-12T09:12:58;22.60;99.90
11242;DHT22;5678;52.370;9.006;2023-08-12T09:15:27;23.00;99.90
11242;DHT22;5678;52.370;9.006;2023-08-12T09:17:56;22.50;99.90
11242;DHT22;5678;52.370;9.006;2023-08-12T09:20:24;22.40;99.90
11242;DHT22;5678;52.370;9.006;2023-08-12T09:22:56;22.60;99.90
11242;DHT22;5678;52.370;9.006;2023-08-12T09:25:26;22.80;99.90
11242;DHT22;5678;52.370;9.006;2023-08-12T09:27:59;23.00;99.90
11242;DHT22;5678;52.370;9.006;2023-08-12T09:30:28;23.40;99.90
11242;DHT22;5678;52.370;9.006;2023-08-12T09:33:00;23.20;99.90
11242;DHT22;5678;52.370;9.006;2023-08-12T09:35:34;23.30;99.90
11242;DHT22;5678;52.370;9.006;2023-08-12T09:38:04;23.50;99.90
11242;DHT22;5678;52.370;9.006;2023-08-12T09:40:33;23.30;99.90
11242;DHT22;5678;52.370;9.006;2023-08-12T09:43:01;23.50;99.90
11242;DHT22;5678;52.370;9.006;2023-08-12T09:45:30;23.40;99.90
11242;DHT22;5678;52.370;9.006;2023-08-12T09:48:01;23.30;99.90
11242;DHT22;5678;52.370;9.006;2023-08-12T09:50:29;23.20;99.90
11242;DHT22;5678;52.370;9.006;2023-08-12T09:52:57;23.20;99.90
11242;DHT22;5678;52.370;9.006;2023-08-12T09:55:25;23.20;99.90
11242;DHT22;5678;52.370;9.006;2023-08-12T09:57:54;23.20;99.90
11242;DHT22;5678;52.370;9.006;2023-08-12T10:00:24;23.50;99.90
11242;DHT22;5678;52.370;9.006;2023-08-12T10:02:52;23.70;99.90
11242;DHT22;5678;52.370;9.006;2023-08-12T10:19:34;24.30;99.90
11242;DHT22;5678;52.370;9.006;2023-08-12T10:22:03;24.50;99.90
11242;DHT22;5678;52.370;9.006;2023-08-12T10:24:31;24.70;99.90
11242;DHT22;5678;52.370;9.006;2023-08-12T10:27:01;24.90;99.90
11242;DHT22;5678;52.370;9.006;2023-08-12T10:29:29;25.20;99.90
11242;DHT22;5678;52.370;9.006;2023-08-12T10:31:58;25.30;99.90
11242;DHT22;5678;52.370;9.006;2023-08-12T10:34:27;25.30;99.90
11242;DHT22;5678;52.370;9.006;2023-08-12T10:36:57;25.30;99.90
11242;DHT22;5678;52.370;9.006;2023-08-12T10:39:31;25.40;99.90
11242;DHT22;5678;52.370;9.006;2023-08-12T10:42:00;25.60;99.90
11242;DHT22;5678;52.370;9.006;2023-08-12T10:44:38;25.70;99.90
11242;DHT22;5678;52.370;9.006;2023-08-12T10:47:08;25.80;99.90
11242;DHT22;5678;52.370;9.006;2023-08-12T10:49:43;25.90;99.90
11242;DHT22;5678;52.370;9.006;2023-08-12T10:52:26;25.90;99.90
11242;DHT22;5678;52.370;9.006;2023-08-12T10:54:55;26.20;99.90
11242;DHT22;5678;52.370;9.006;2023-08-12T10:57:43;26.60;99.90
11242;DHT22;5678;52.370;9.006;2023-08-12T11:00:14;26.70;99.90
11242;DHT22;5678;52.370;9.006;2023-08-12T11:02:44;26.60;99.90
11242;DHT22;5678;52.370;9.006;2023-08-12T11:05:13;26.50;99.90
11242;DHT22;5678;52.370;9.006;2023-08-12T11:07:44;26.30;99.90
11242;DHT22;5678;52.370;9.006;2023-08-12T11:10:14;26.30;99.90
11242;DHT22;5678;52.370;9.006;2023-08-12T11:12:48;26.20;99.90
11242;DHT22;5678;52.370;9.006;2023-08-12T11:15:17;26.10;99.90
11242;DHT22;5678;52.370;9.006;2023-08-12T11:17:47;26.00;99.90
11242;DHT22;5678;52.370;9.006;2023-08-12T11:20:15;25.80;99.90
11242;DHT22;5678;52.370;9.006;2023-08-12T11:22:44;25.60;99.90
11242;DHT22;5678;52.370;9.006;2023-08-12T11:25:14;25.30;99.90
11242;DHT22;5678;52.370;9.006;2023-08-12T11:27:45;25.30;99.90
11242;DHT22;5678;52.370;9.006;2023-08-12T11:30:15;25.20;99.90
11242;DHT22;5678;52.370;9.006;2023-08-12T11:32:43;25.30;99.90
11242;DHT22;5678;52.370;9.006;2023-08-12T11:35:13;25.30;99.90
11242;DHT22;5678;52.370;9.006;2023-08-12T11:37:44;25.40;99.90
11242;DHT22;5678;52.370;9.006;2023-08-12T11:40:13;25.50;99.90
11242;DHT22;5678;52.370;9.006;2023-08-12T11:42:43;25.50;99.90
11242;DHT22;5678;52.370;9.006;2023-08-12T11:45:13;25.50;99.90
11242;DHT22;5678;52.370;9.006;2023-08-12T11:47:42;24.40;99.90
11242;DHT22;5678;52.370;9.006;2023-08-12T11:50:12;25.30;99.90
11242;DHT22;5678;52.370;9.006;2023-08-12T11:52:40;25.40;99.90
11242;DHT22;5678;52.370;9.006;2023-08-12T11:55:10;25.60;99.90
11242;DHT22;5678;52.370;9.006;2023-08-12T11:57:39;25.70;99.90
11242;DHT22;5678;52.370;9.006;2023-08-12T12:00:10;25.90;99.90
11242;DHT22;5678;52.370;9.006;2023-08-12T12:02:47;26.00;99.90
11242;DHT22;5678;52.370;9.006;2023-08-12T12:05:16;25.90;99.90
11242;DHT22;5678;52.370;9.006;2023-08-12T12:07:49;25.80;99.90
11242;DHT22;5678;52.370;9.006;2023-08-12T12:10:20;25.50;99.90
11242;DHT22;5678;52.370;9.006;2023-08-12T12:12:48;25.20;99.90
11242;DHT22;5678;52.370;9.006;2023-08-12T12:15:16;25.10;99.90
11242;DHT22;5678;52.370;9.006;2023-08-12T12:17:45;24.90;99.90
11242;DHT22;5678;52.370;9.006;2023-08-12T12:20:14;24.90;99.90
11242;DHT22;5678;52.370;9.006;2023-08-12T12:22:43;24.90;99.90
11242;DHT22;5678;52.370;9.006;2023-08-12T12:25:13;25.10;99.90
11242;DHT22;5678;52.370;9.006;2023-08-12T12:27:44;25.30;99.90
11242;DHT22;5678;52.370;9.006;2023-08-12T12:30:13;25.50;99.90
11242;DHT22;5678;52.370;9.006;2023-08-12T12:32:42;25.40;99.90
11242;DHT22;5678;52.370;9.006;2023-08-12T12:35:10;25.40;99.90
11242;DHT22;5678;52.370;9.006;2023-08-12T12:37:38;25.50;99.90
11242;DHT22;5678;52.370;9.006;2023-08-12T12:40:07;25.70;99.90
11242;DHT22;5678;52.370;9.006;2023-08-12T12:42:36;25.70;99.90
11242;DHT22;5678;52.370;9.006;2023-08-12T12:45:08;25.70;99.90
11242;DHT22;5678;52.370;9.006;2023-08-12T12:47:36;25.70;99.90
11242;DHT22;5678;52.370;9.006;2023-08-12T12:50:06;25.90;99.90
11242;DHT22;5678;52.370;9.006;2023-08-12T12:52:34;26.20;99.90
11242;DHT22;5678;52.370;9.006;2023-08-12T12:55:02;26.60;99.90
11242;DHT22;5678;52.370;9.006;2023-08-12T12:57:31;26.60;99.90
11242;DHT22;5678;52.370;9.006;2023-08-12T12:59:59;26.60;99.90
11242;DHT22;5678;52.370;9.006;2023-08-12T13:02:29;26.60;99.90
11242;DHT22;5678;52.370;9.006;2023-08-12T13:04:57;26.30;99.90
11242;DHT22;5678;52.370;9.006;2023-08-12T13:07:25;26.10;99.90
11242;DHT22;5678;52.370;9.006;2023-08-12T13:09:53;26.00;99.90
11242;DHT22;5678;52.370;9.006;2023-08-12T13:12:21;25.80;99.90
11242;DHT22;5678;52.370;9.006;2023-08-12T13:14:49;25.80;99.90
11242;DHT22;5678;52.370;9.006;2023-08-12T13:17:17;25.80;99.90
11242;DHT22;5678;52.370;9.006;2023-08-12T13:19:46;25.70;99.90
11242;DHT22;5678;52.370;9.006;2023-08-12T13:22:14;25.70;99.90
11242;DHT22;5678;52.370;9.006;2023-08-12T13:24:42;25.60;99.90
11242;DHT22;5678;52.370;9.006;2023-08-12T13:27:11;25.60;99.90
11242;DHT22;5678;52.370;9.006;2023-08-12T13:29:39;25.40;99.90
11242;DHT22;5678;52.370;9.006;2023-08-12T13:32:07;25.20;99.90
11242;DHT22;5678;52.370;9.006;2023-08-12T13:34:35;25.10;99.90
11242;DHT22;5678;52.370;9.006;2023-08-12T13:37:05;25.00;99.90
11242;DHT22;5678;52.370;9.006;2023-08-12T13:39:33;25.00;99.90
11242;DHT22;5678;52.370;9.006;2023-08-12T13:42:01;25.00;99.90
11242;DHT22;5678;52.370;9.006;2023-08-12T13:44:29;25.00;99.90
11242;DHT22;5678;52.370;9.006;2023-08-12T13:46:57;25.10;99.90
11242;DHT22;5678;52.370;9.006;2023-08-12T13:49:25;25.10;99.90
11242;DHT22;5678;52.370;9.006;2023-08-12T13:51:54;25.10;99.90
11242;DHT22;5678;52.370;9.006;2023-08-12T13:54:23;25.10;99.90
11242;DHT22;5678;52.370;9.006;2023-08-12T13:56:52;25.10;99.90
11242;DHT22;5678;52.370;9.006;2023-08-12T13:59:20;25.20;99.90
11242;DHT22;5678;52.370;9.006;2023-08-12T14:01:48;25.50;99.90
11242;DHT22;5678;52.370;9.006;2023-08-12T14:04:16;25.70;99.90
11242;DHT22;5678;52.370;9.006;2023-08-12T14:06:44;25.80;99.90
11242;DHT22;5678;52.370;9.006;2023-08-12T14:09:13;25.70;99.90
11242;DHT22;5678;52.370;9.006;2023-08-12T14:11:43;25.80;99.90
11242;DHT22;5678;52.370;9.006;2023-08-12T14:14:11;25.70;99.90
11242;DHT22;5678;52.370;9.006;2023-08-12T14:16:39;25.70;99.90
11242;DHT22;5678;52.370;9.006;2023-08-12T14:19:07;25.60;99.90
11242;DHT22;5678;52.370;9.006;2023-08-12T14:21:35;25.70;99.90
11242;DHT22;5678;52.370;9.006;2023-08-12T14:24:04;25.80;99.90
11242;DHT22;5678;52.370;9.006;2023-08-12T14:26:31;25.90;99.90
11242;DHT22;5678;52.370;9.006;2023-08-12T14:29:01;26.00;99.90
11242;DHT22;5678;52.370;9.006;2023-08-12T14:31:29;26.10;99.90
11242;DHT22;5678;52.370;9.006;2023-08-12T14:33:57;26.20;99.90
11242;DHT22;5678;52.370;9.006;2023-08-12T14:36:25;26.20;99.90
11242;DHT22;5678;52.370;9.006;2023-08-12T14:38:53;26.10;99.90
11242;DHT22;5678;52.370;9.006;2023-08-12T14:41:21;26.00;99.90
11242;DHT22;5678;52.370;9.006;2023-08-12T14:43:49;25.90;99.90
11242;DHT22;5678;52.370;9.006;2023-08-12T14:46:18;26.10;99.90
11242;DHT22;5678;52.370;9.006;2023-08-12T14:48:47;26.30;99.90
11242;DHT22;5678;52.370;9.006;2023-08-12T14:51:15;26.30;99.90
11242;DHT22;5678;52.370;9.006;2023-08-12T14:53:43;26.40;99.90
11242;DHT22;5678;52.370;9.006;2023-08-12T14:56:11;26.20;99.90
11242;DHT22;5678;52.370;9.006;2023-08-12T14:58:39;26.00;99.90
11242;DHT22;5678;52.370;9.006;2023-08-12T15:01:07;25.90;99.90
11242;DHT22;5678;52.370;9.006;2023-08-12T15:03:36;25.80;99.90
11242;DHT22;5678;52.370;9.006;2023-08-12T15:06:04;25.80;99.90
11242;DHT22;5678;52.370;9.006;2023-08-12T15:08:33;25.70;99.90
11242;DHT22;5678;52.370;9.006;2023-08-12T15:11:01;25.60;99.90
11242;DHT22;5678;52.370;9.006;2023-08-12T15:13:29;25.50;99.90
11242;DHT22;5678;52.370;9.006;2023-08-12T15:15:56;25.30;99.90
11242;DHT22;5678;52.370;9.006;2023-08-12T15:18:25;25.10;99.90
11242;DHT22;5678;52.370;9.006;2023-08-12T15:20:54;25.00;99.90
11242;DHT22;5678;52.370;9.006;2023-08-12T15:23:22;25.00;99.90
11242;DHT22;5678;52.370;9.006;2023-08-12T15:25:50;25.10;99.90
11242;DHT22;5678;52.370;9.006;2023-08-12T15:28:18;25.20;99.90
11242;DHT22;5678;52.370;9.006;2023-08-12T15:30:48;25.30;99.90
11242;DHT22;5678;52.370;9.006;2023-08-12T15:33:16;25.40;99.90
11242;DHT22;5678;52.370;9.006;2023-08-12T15:35:44;25.40;99.90
11242;DHT22;5678;52.370;9.006;2023-08-12T15:38:13;25.40;99.90
11242;DHT22;5678;52.370;9.006;2023-08-12T15:40:42;25.40;99.90
11242;DHT22;5678;52.370;9.006;2023-08-12T15:43:10;25.30;99.90
11242;DHT22;5678;52.370;9.006;2023-08-12T15:45:38;25.20;99.90
11242;DHT22;5678;52.370;9.006;2023-08-12T15:48:08;25.10;99.90
11242;DHT22;5678;52.370;9.006;2023-08-12T15:50:37;25.00;99.90
11242;DHT22;5678;52.370;9.006;2023-08-12T15:53:08;24.90;99.90
11242;DHT22;5678;52.370;9.006;2023-08-12T15:55:37;24.80;99.90
11242;DHT22;5678;52.370;9.006;2023-08-12T15:58:05;24.70;99.90
11242;DHT22;5678;52.370;9.006;2023-08-12T16:00:33;24.60;99.90
11242;DHT22;5678;52.370;9.006;2023-08-12T16:03:01;24.50;99.90
11242;DHT22;5678;52.370;9.006;2023-08-12T16:05:48;24.50;99.90
